createdAt,value
2022-10-30T00:01:36.380Z,48.55
2022-10-30T00:04:02.860Z,48.78
2022-10-30T00:06:29.351Z,48.57
2022-10-30T00:08:55.921Z,48.53
2022-10-30T00:11:22.717Z,48.70
2022-10-30T00:13:49.950Z,48.57
2022-10-30T00:16:16.580Z,48.71
2022-10-30T00:18:43.443Z,48.61
2022-10-30T00:21:12.485Z,48.45
2022-10-30T00:23:39.519Z,48.52
2022-10-30T00:26:07.590Z,48.61
2022-10-30T00:28:34.493Z,48.82
2022-10-30T00:31:02.601Z,48.81
2022-10-30T00:33:29.139Z,48.69
2022-10-30T00:35:55.634Z,48.85
2022-10-30T00:38:22.306Z,48.72
2022-10-30T00:40:48.849Z,48.75
2022-10-30T00:43:34.949Z,48.61
2022-10-30T00:46:21.660Z,48.61
2022-10-30T00:48:52.895Z,48.44
2022-10-30T00:51:20.728Z,48.81
2022-10-30T00:53:48.613Z,48.76
2022-10-30T00:56:17.650Z,48.91
2022-10-30T00:58:50.927Z,48.60
2022-10-30T01:01:21.699Z,48.74
2022-10-30T01:03:50.578Z,48.68
2022-10-30T01:06:17.725Z,48.71
2022-10-30T01:08:45.327Z,48.66
2022-10-30T01:11:12.460Z,48.55
2022-10-30T01:13:42.288Z,48.58
2022-10-30T01:16:35.284Z,48.71
2022-10-30T01:19:16.887Z,48.77
2022-10-30T01:22:15.254Z,48.38
2022-10-30T01:25:00.468Z,48.23
2022-10-30T01:27:48.885Z,48.34
2022-10-30T01:30:27.311Z,48.23
2022-10-30T01:33:14.853Z,48.17
2022-10-30T01:35:48.964Z,48.26
2022-10-30T01:38:19.206Z,48.55
2022-10-30T01:40:45.904Z,48.44
2022-10-30T01:43:12.468Z,48.38
2022-10-30T01:46:13.748Z,48.55
2022-10-30T01:48:49.291Z,48.50
2022-10-30T01:51:15.830Z,48.85
2022-10-30T01:53:53.540Z,48.53
2022-10-30T01:56:35.221Z,48.62
2022-10-30T01:59:30.416Z,48.49
2022-10-30T02:01:58.240Z,48.90
2022-10-30T02:04:25.103Z,48.86
2022-10-30T02:06:51.811Z,48.72
2022-10-30T02:09:18.420Z,49.03
2022-10-30T02:11:47.352Z,48.86
2022-10-30T02:14:18.545Z,48.64
2022-10-30T02:16:47.743Z,48.97
2022-10-30T02:19:14.360Z,48.85
2022-10-30T02:21:40.979Z,48.83
2022-10-30T02:24:07.689Z,49.15
2022-10-30T02:26:34.423Z,48.86
2022-10-30T02:29:00.979Z,48.94
2022-10-30T02:31:27.650Z,48.99
2022-10-30T02:33:54.177Z,48.82
2022-10-30T02:36:20.872Z,48.69
2022-10-30T02:38:47.367Z,49.02
2022-10-30T02:41:14.221Z,48.64
2022-10-30T02:43:40.723Z,48.72
2022-10-30T02:46:07.286Z,48.85
2022-10-30T02:48:33.765Z,48.69
2022-10-30T02:51:01.212Z,48.67
2022-10-30T02:53:28.242Z,48.86
2022-10-30T02:55:55.154Z,48.63
2022-10-30T02:58:21.992Z,48.72
2022-10-30T03:00:48.539Z,49.05
2022-10-30T03:03:17.520Z,48.75
2022-10-30T03:05:46.501Z,48.91
2022-10-30T03:08:13.136Z,48.61
2022-10-30T03:10:39.620Z,48.85
2022-10-30T03:13:06.111Z,48.81
2022-10-30T03:15:32.645Z,48.71
2022-10-30T03:17:59.583Z,48.83
2022-10-30T03:20:26.285Z,48.86
2022-10-30T03:22:52.922Z,48.98
2022-10-30T03:25:23.669Z,48.89
2022-10-30T03:27:50.679Z,48.92
2022-10-30T03:30:17.390Z,48.94
2022-10-30T03:32:43.973Z,49.09
2022-10-30T03:35:10.471Z,49.33
2022-10-30T03:37:36.968Z,49.41
2022-10-30T03:40:03.580Z,49.46
2022-10-30T03:42:30.021Z,49.27
2022-10-30T03:44:56.503Z,49.48
2022-10-30T03:47:23.091Z,49.75
2022-10-30T03:49:49.727Z,49.35
2022-10-30T03:52:16.216Z,49.69
2022-10-30T03:54:42.669Z,49.85
2022-10-30T03:57:09.257Z,49.76
2022-10-30T03:59:35.794Z,49.96
2022-10-30T04:02:02.493Z,50.01
2022-10-30T04:04:29.182Z,49.97
2022-10-30T04:06:55.714Z,49.99
2022-10-30T04:09:22.232Z,50.00
2022-10-30T04:11:48.765Z,50.38
2022-10-30T04:14:15.271Z,50.21
2022-10-30T04:16:41.833Z,50.48
2022-10-30T04:19:08.405Z,50.45
2022-10-30T04:21:34.892Z,50.51
2022-10-30T04:24:01.432Z,50.28
2022-10-30T04:26:28.421Z,50.64
2022-10-30T04:28:54.802Z,50.64
2022-10-30T04:31:21.116Z,50.67
2022-10-30T04:33:47.442Z,50.42
2022-10-30T04:36:13.844Z,50.44
2022-10-30T04:38:40.191Z,50.53
2022-10-30T04:41:06.545Z,50.63
2022-10-30T04:43:32.907Z,50.56
2022-10-30T04:45:59.298Z,50.52
2022-10-30T04:48:25.636Z,50.35
2022-10-30T04:50:52.027Z,50.85
2022-10-30T04:53:19.119Z,50.43
2022-10-30T04:55:45.759Z,50.72
2022-10-30T04:58:12.930Z,50.57
2022-10-30T05:00:39.710Z,50.60
2022-10-30T05:03:06.046Z,50.31
2022-10-30T05:05:32.468Z,50.29
2022-10-30T05:07:59.291Z,50.71
2022-10-30T05:10:25.993Z,50.92
2022-10-30T05:12:55.739Z,50.88
2022-10-30T05:15:22.183Z,51.00
2022-10-30T05:17:53.561Z,50.98
2022-10-30T05:20:20.637Z,50.82
2022-10-30T05:22:54.253Z,50.82
2022-10-30T05:25:20.611Z,50.88
2022-10-30T05:27:46.997Z,51.02
2022-10-30T05:30:13.462Z,50.89
2022-10-30T05:32:39.847Z,50.98
2022-10-30T05:35:06.802Z,51.30
2022-10-30T05:37:33.225Z,51.38
2022-10-30T05:39:59.553Z,51.45
2022-10-30T05:42:26.090Z,51.13
2022-10-30T05:45:00.999Z,51.46
2022-10-30T05:47:28.249Z,51.18
2022-10-30T05:49:54.821Z,51.31
2022-10-30T05:52:21.330Z,51.62
2022-10-30T05:54:47.852Z,51.62
2022-10-30T05:57:14.341Z,51.33
2022-10-30T05:59:40.914Z,51.34
2022-10-30T06:02:07.526Z,51.63
2022-10-30T06:04:34.174Z,51.53
2022-10-30T06:07:00.726Z,51.85
2022-10-30T06:09:27.315Z,51.62
2022-10-30T06:11:54.329Z,51.82
2022-10-30T06:14:20.856Z,51.78
2022-10-30T06:16:47.965Z,51.90
2022-10-30T06:19:17.630Z,52.00
2022-10-30T06:21:46.055Z,52.22
2022-10-30T06:24:12.779Z,52.17
2022-10-30T06:26:39.725Z,52.27
2022-10-30T06:29:06.437Z,52.12
2022-10-30T06:31:33.058Z,52.33
2022-10-30T06:33:59.668Z,52.24
2022-10-30T06:36:26.193Z,52.45
2022-10-30T06:38:52.846Z,52.41
2022-10-30T06:41:19.448Z,52.71
2022-10-30T06:43:46.117Z,52.65
2022-10-30T06:46:12.787Z,52.34
2022-10-30T06:48:39.367Z,52.40
2022-10-30T06:51:06.097Z,52.60
2022-10-30T06:53:32.643Z,52.86
2022-10-30T06:56:01.288Z,52.71
2022-10-30T06:58:28.595Z,52.63
2022-10-30T07:00:55.962Z,52.92
2022-10-30T07:03:22.656Z,53.02
2022-10-30T07:05:49.210Z,53.08
2022-10-30T07:08:16.168Z,53.51
2022-10-30T07:10:42.709Z,53.40
2022-10-30T07:13:09.577Z,53.50
2022-10-30T07:15:36.489Z,53.56
2022-10-30T07:18:04.381Z,53.76
2022-10-30T07:20:33.496Z,53.74
2022-10-30T07:23:00.907Z,53.79
2022-10-30T07:25:27.920Z,53.86
2022-10-30T07:27:55.667Z,53.83
2022-10-30T07:32:58.266Z,54.36
2022-10-30T07:35:25.065Z,54.04
2022-10-30T07:37:51.748Z,54.42
2022-10-30T07:40:18.972Z,54.08
2022-10-30T07:42:45.568Z,54.00
2022-10-30T07:45:12.115Z,54.20
2022-10-30T07:47:42.995Z,54.46
2022-10-30T07:50:10.624Z,54.34
2022-10-30T07:52:37.222Z,53.99
2022-10-30T07:55:05.123Z,54.23
2022-10-30T07:57:42.544Z,54.43
2022-10-30T08:00:12.043Z,54.35
2022-10-30T08:02:38.937Z,54.13
2022-10-30T08:05:06.542Z,54.26
2022-10-30T08:07:34.504Z,54.10
2022-10-30T08:10:01.083Z,54.04
2022-10-30T08:12:27.948Z,54.11
2022-10-30T08:14:54.747Z,54.46
2022-10-30T08:17:21.745Z,54.50
2022-10-30T08:19:48.334Z,54.26
2022-10-30T08:22:14.872Z,54.35
2022-10-30T08:24:41.618Z,54.49
2022-10-30T08:27:08.182Z,54.54
2022-10-30T08:29:34.925Z,54.44
2022-10-30T08:32:01.615Z,54.24
2022-10-30T08:34:28.316Z,54.24
2022-10-30T08:36:54.939Z,54.40
2022-10-30T08:39:21.628Z,54.76
2022-10-30T08:41:48.188Z,54.54
2022-10-30T08:44:14.798Z,55.09
2022-10-30T08:46:41.331Z,54.87
2022-10-30T08:49:07.917Z,54.82
2022-10-30T08:51:35.319Z,54.85
2022-10-30T08:54:02.109Z,54.62
2022-10-30T08:56:28.666Z,54.95
2022-10-30T08:58:55.196Z,54.39
2022-10-30T09:01:21.899Z,54.65
2022-10-30T09:03:48.526Z,55.00
2022-10-30T09:06:15.117Z,54.95
2022-10-30T09:08:41.865Z,55.02
2022-10-30T09:11:08.378Z,54.77
2022-10-30T09:13:34.933Z,54.63
2022-10-30T09:16:02.210Z,54.92
2022-10-30T09:18:29.044Z,54.88
2022-10-30T09:20:55.566Z,54.84
2022-10-30T09:23:22.158Z,55.18
2022-10-30T09:25:48.722Z,54.87
2022-10-30T09:28:15.285Z,55.06
2022-10-30T09:30:41.797Z,54.95
2022-10-30T09:33:09.175Z,54.97
2022-10-30T09:35:36.949Z,55.21
2022-10-30T09:38:03.590Z,54.89
2022-10-30T09:41:04.004Z,54.72
2022-10-30T09:44:07.423Z,54.85
2022-10-30T09:46:36.503Z,54.70
2022-10-30T09:49:38.470Z,54.21
2022-10-30T09:52:19.928Z,54.27
2022-10-30T09:55:05.366Z,54.55
2022-10-30T09:57:53.452Z,54.15
2022-10-30T10:00:22.821Z,54.00
2022-10-30T10:03:16.657Z,54.05
2022-10-30T10:05:52.337Z,54.04
2022-10-30T10:08:37.713Z,54.18
2022-10-30T10:11:13.746Z,53.95
2022-10-30T10:14:08.583Z,53.87
2022-10-30T10:16:39.209Z,53.82
2022-10-30T10:19:21.155Z,53.85
2022-10-30T10:22:01.951Z,53.51
2022-10-30T10:24:33.119Z,54.17
2022-10-30T10:27:23.503Z,54.31
2022-10-30T10:29:58.642Z,54.22
2022-10-30T10:32:30.837Z,53.52
2022-10-30T10:35:24.760Z,53.00
2022-10-30T10:37:57.588Z,53.21
2022-10-30T10:40:42.950Z,53.21
2022-10-30T10:43:37.663Z,53.29
2022-10-30T10:46:22.333Z,53.22
2022-10-30T10:48:54.889Z,52.47
2022-10-30T10:51:30.893Z,52.37
2022-10-30T10:54:02.480Z,52.22
2022-10-30T10:56:34.782Z,51.79
2022-10-30T10:59:18.583Z,51.41
2022-10-30T11:02:05.400Z,51.54
2022-10-30T11:04:36.016Z,51.28
2022-10-30T11:07:17.483Z,49.84
2022-10-30T11:09:45.058Z,49.33
2022-10-30T11:12:11.815Z,49.08
2022-10-30T11:14:38.588Z,49.18
2022-10-30T11:17:04.984Z,49.69
2022-10-30T11:19:32.176Z,49.31
2022-10-30T11:21:59.176Z,49.19
2022-10-30T11:24:27.370Z,47.90
2022-10-30T11:26:56.871Z,47.88
2022-10-30T11:29:27.891Z,47.59
2022-10-30T11:32:18.592Z,46.57
2022-10-30T11:34:45.100Z,45.91
2022-10-30T11:37:30.539Z,44.31
2022-10-30T11:40:12.149Z,42.33
2022-10-30T11:42:42.238Z,42.29
2022-10-30T11:45:24.008Z,39.00
2022-10-30T11:47:52.042Z,40.35
2022-10-30T11:50:28.230Z,38.89
2022-10-30T11:52:59.227Z,38.49
2022-10-30T11:55:38.920Z,37.43
2022-10-30T11:58:07.791Z,37.86
2022-10-30T12:00:36.252Z,37.47
2022-10-30T12:03:06.051Z,36.81
2022-10-30T12:05:44.860Z,35.62
2022-10-30T12:08:18.742Z,34.74
2022-10-30T12:10:51.426Z,38.94
2022-10-30T12:13:20.064Z,36.17
2022-10-30T12:15:49.919Z,35.33
2022-10-30T12:18:24.581Z,34.80
2022-10-30T12:20:57.039Z,34.40
2022-10-30T12:23:26.816Z,34.59
2022-10-30T12:25:55.712Z,34.71
2022-10-30T12:28:25.146Z,33.93
2022-10-30T12:31:01.006Z,33.56
2022-10-30T12:33:50.341Z,33.87
2022-10-30T12:36:21.396Z,33.17
2022-10-30T12:39:14.779Z,32.98
2022-10-30T12:41:41.275Z,33.57
2022-10-30T12:44:07.703Z,33.74
2022-10-30T12:46:42.016Z,33.99
2022-10-30T12:49:20.817Z,34.67
2022-10-30T12:51:59.430Z,34.89
2022-10-30T12:54:35.893Z,35.79
2022-10-30T12:57:14.176Z,36.04
2022-10-30T13:00:07.221Z,36.26
2022-10-30T13:02:33.696Z,36.88
2022-10-30T13:05:05.785Z,36.99
2022-10-30T13:07:58.363Z,37.58
2022-10-30T13:10:33.382Z,37.95
2022-10-30T13:13:08.299Z,37.62
2022-10-30T13:15:41.992Z,37.94
2022-10-30T13:18:34.588Z,38.68
2022-10-30T13:21:06.423Z,38.45
2022-10-30T13:24:02.009Z,39.10
2022-10-30T13:26:31.438Z,39.05
2022-10-30T13:29:07.005Z,39.57
2022-10-30T13:31:36.270Z,38.95
2022-10-30T13:34:44.778Z,39.66
2022-10-30T13:37:33.020Z,40.07
2022-10-30T13:40:26.775Z,39.74
2022-10-30T13:43:07.752Z,39.78
2022-10-30T13:45:36.932Z,39.73
2022-10-30T13:48:22.243Z,40.12
2022-10-30T13:51:05.389Z,40.33
2022-10-30T13:53:36.795Z,40.18
2022-10-30T13:56:04.833Z,39.85
2022-10-30T13:58:46.285Z,40.02
2022-10-30T14:01:21.415Z,39.91
2022-10-30T14:03:59.633Z,40.25
2022-10-30T14:06:44.513Z,39.83
2022-10-30T14:09:21.284Z,38.93
2022-10-30T14:11:47.812Z,38.98
2022-10-30T14:14:23.274Z,38.68
2022-10-30T14:17:11.275Z,39.28
2022-10-30T14:20:12.143Z,39.54
2022-10-30T14:22:40.284Z,38.99
2022-10-30T14:25:15.320Z,38.78
2022-10-30T14:27:42.020Z,38.63
2022-10-30T14:30:19.659Z,38.96
2022-10-30T14:32:51.811Z,38.48
2022-10-30T14:35:36.564Z,39.03
2022-10-30T14:38:07.000Z,38.97
2022-10-30T14:40:44.075Z,39.11
2022-10-30T14:43:23.531Z,39.28
2022-10-30T14:46:02.078Z,39.55
2022-10-30T14:48:41.328Z,39.85
2022-10-30T14:51:28.688Z,39.75
2022-10-30T14:54:18.558Z,40.03
2022-10-30T14:56:50.429Z,40.16
2022-10-30T14:59:16.899Z,40.30
2022-10-30T15:02:01.658Z,40.59
2022-10-30T15:05:03.982Z,41.44
2022-10-30T15:07:48.615Z,41.05
2022-10-30T15:10:35.263Z,41.72
2022-10-30T15:13:06.258Z,42.24
2022-10-30T15:15:33.381Z,41.91
2022-10-30T15:18:07.536Z,42.48
2022-10-30T15:20:35.517Z,42.34
2022-10-30T15:23:11.990Z,42.95
2022-10-30T15:25:49.386Z,43.46
2022-10-30T15:28:22.525Z,43.44
2022-10-30T15:31:27.584Z,43.89
2022-10-30T15:33:55.024Z,43.55
2022-10-30T15:36:24.153Z,44.36
2022-10-30T15:39:04.193Z,44.60
2022-10-30T15:41:31.369Z,44.18
2022-10-30T15:43:59.064Z,44.64
2022-10-30T15:46:25.737Z,44.81
2022-10-30T15:48:52.318Z,44.86
2022-10-30T15:51:24.351Z,45.33
2022-10-30T15:53:57.504Z,46.12
2022-10-30T15:56:31.585Z,46.07
2022-10-30T15:59:04.414Z,46.21
2022-10-30T16:01:42.674Z,46.16
2022-10-30T16:04:15.426Z,46.13
2022-10-30T16:06:50.094Z,46.32
2022-10-30T16:09:17.160Z,46.16
2022-10-30T16:11:44.315Z,46.44
2022-10-30T16:14:17.498Z,47.01
2022-10-30T16:16:45.510Z,46.78
2022-10-30T16:19:28.007Z,47.49
2022-10-30T16:21:57.537Z,47.00
2022-10-30T16:24:31.120Z,47.72
2022-10-30T16:27:15.038Z,47.80
2022-10-30T16:29:42.595Z,47.59
2022-10-30T16:34:46.270Z,47.98
2022-10-30T16:37:27.556Z,48.59
2022-10-30T16:39:55.975Z,48.13
2022-10-30T16:42:25.309Z,48.77
2022-10-30T16:45:12.452Z,48.84
2022-10-30T16:47:43.342Z,48.39
2022-10-30T16:50:16.294Z,48.80
2022-10-30T16:52:43.517Z,48.15
2022-10-30T16:55:19.299Z,48.90
2022-10-30T16:57:53.179Z,48.87
2022-10-30T17:00:25.838Z,49.03
2022-10-30T17:02:55.987Z,49.12
2022-10-30T17:05:27.475Z,49.82
2022-10-30T17:08:09.118Z,50.45
2022-10-30T17:10:55.621Z,50.00
2022-10-30T17:13:42.669Z,50.37
2022-10-30T17:16:23.405Z,50.36
2022-10-30T17:18:52.323Z,50.34
2022-10-30T17:21:23.445Z,50.54
2022-10-30T17:23:52.404Z,50.46
2022-10-30T17:26:19.313Z,50.39
2022-10-30T17:28:47.450Z,50.41
2022-10-30T17:31:25.127Z,51.12
2022-10-30T17:34:17.993Z,51.03
2022-10-30T17:36:46.295Z,50.61
2022-10-30T17:39:13.263Z,50.98
2022-10-30T17:41:40.704Z,51.04
2022-10-30T17:44:19.012Z,51.49
2022-10-30T17:46:46.844Z,51.28
2022-10-30T17:49:29.081Z,51.40
2022-10-30T17:51:55.991Z,51.10
2022-10-30T17:54:22.728Z,51.15
2022-10-30T17:56:49.501Z,51.28
2022-10-30T17:59:16.206Z,51.38
2022-10-30T18:01:42.949Z,51.48
2022-10-30T18:04:20.952Z,51.79
2022-10-30T18:06:48.180Z,51.37
2022-10-30T18:09:15.188Z,51.69
2022-10-30T18:11:41.687Z,51.88
2022-10-30T18:14:10.892Z,52.28
2022-10-30T18:16:37.457Z,52.14
2022-10-30T18:19:04.008Z,52.27
2022-10-30T18:21:31.289Z,52.14
2022-10-30T18:23:57.972Z,51.99
2022-10-30T18:26:26.529Z,52.10
2022-10-30T18:28:53.467Z,51.75
2022-10-30T18:31:22.456Z,51.79
2022-10-30T18:33:49.262Z,51.58
2022-10-30T18:36:21.568Z,52.07
2022-10-30T18:38:48.821Z,51.69
2022-10-30T18:41:18.028Z,51.84
2022-10-30T18:43:46.910Z,51.49
2022-10-30T18:46:14.579Z,51.33
2022-10-30T18:48:41.376Z,51.47
2022-10-30T18:51:16.324Z,51.80
2022-10-30T18:53:51.009Z,51.49
2022-10-30T18:56:19.394Z,51.42
2022-10-30T18:58:46.223Z,51.42
2022-10-30T19:01:14.701Z,51.33
2022-10-30T19:03:41.984Z,51.41
2022-10-30T19:06:13.588Z,51.96
2022-10-30T19:08:40.424Z,51.49
2022-10-30T19:11:07.275Z,51.51
2022-10-30T19:13:33.815Z,51.70
2022-10-30T19:16:01.072Z,51.73
2022-10-30T19:18:28.682Z,51.91
2022-10-30T19:21:15.717Z,51.68
2022-10-30T19:23:41.846Z,51.81
2022-10-30T19:26:08.512Z,51.77
2022-10-30T19:28:35.324Z,51.59
2022-10-30T19:31:01.909Z,51.85
2022-10-30T19:33:28.502Z,51.94
2022-10-30T19:35:57.108Z,51.90
2022-10-30T19:38:24.239Z,52.08
2022-10-30T19:40:51.065Z,52.24
2022-10-30T19:43:17.615Z,52.10
2022-10-30T19:45:44.631Z,52.34
2022-10-30T19:48:24.750Z,52.59
2022-10-30T19:51:01.084Z,52.18
2022-10-30T19:53:28.761Z,52.21
2022-10-30T19:55:55.300Z,52.37
2022-10-30T19:58:25.143Z,52.35
2022-10-30T20:00:54.221Z,52.56
2022-10-30T20:03:21.028Z,52.37
2022-10-30T20:05:52.042Z,52.78
2022-10-30T20:08:22.137Z,52.78
2022-10-30T20:10:57.365Z,53.11
2022-10-30T20:13:25.198Z,53.06
2022-10-30T20:15:56.880Z,53.42
2022-10-30T20:18:30.256Z,53.41
2022-10-30T20:21:01.917Z,53.37
2022-10-30T20:23:28.950Z,53.14
2022-10-30T20:26:02.071Z,53.81
2022-10-30T20:28:35.751Z,53.99
2022-10-30T20:31:02.655Z,53.53
2022-10-30T20:33:29.263Z,53.76
2022-10-30T20:35:56.311Z,53.57
2022-10-30T20:38:31.322Z,54.49
2022-10-30T20:40:59.147Z,53.91
2022-10-30T20:43:29.984Z,54.40
2022-10-30T20:46:00.515Z,54.23
2022-10-30T20:48:27.789Z,54.44
2022-10-30T20:50:59.531Z,55.24
2022-10-30T20:53:26.441Z,54.74
2022-10-30T20:55:53.022Z,55.19
2022-10-30T20:58:19.826Z,55.03
2022-10-30T21:00:46.438Z,55.22
2022-10-30T21:03:15.786Z,55.35
2022-10-30T21:05:44.961Z,55.50
2022-10-30T21:08:13.662Z,55.65
2022-10-30T21:10:40.959Z,55.71
2022-10-30T21:13:09.600Z,55.96
2022-10-30T21:15:44.914Z,57.01
2022-10-30T21:18:15.182Z,56.48
2022-10-30T21:20:41.666Z,56.34
2022-10-30T21:23:08.819Z,56.40
2022-10-30T21:25:35.843Z,56.77
2022-10-30T21:28:03.192Z,56.88
2022-10-30T21:30:29.803Z,56.92
2022-10-30T21:32:56.423Z,56.93
2022-10-30T21:35:23.054Z,57.14
2022-10-30T21:37:49.822Z,57.20
2022-10-30T21:40:16.405Z,57.42
2022-10-30T21:42:42.915Z,57.58
2022-10-30T21:45:10.097Z,57.78
2022-10-30T21:47:36.684Z,57.69
2022-10-30T21:50:07.732Z,57.72
2022-10-30T21:52:36.178Z,57.87
2022-10-30T21:55:03.039Z,57.83
2022-10-30T21:57:29.817Z,58.08
2022-10-30T21:59:58.787Z,57.98
2022-10-30T22:02:28.331Z,58.28
2022-10-30T22:04:54.847Z,58.37
2022-10-30T22:07:21.447Z,58.60
2022-10-30T22:09:47.971Z,58.31
2022-10-30T22:12:14.436Z,58.46
2022-10-30T22:14:40.981Z,58.72
2022-10-30T22:17:08.435Z,59.17
2022-10-30T22:19:35.009Z,59.14
2022-10-30T22:22:01.494Z,58.91
2022-10-30T22:24:27.994Z,59.07
2022-10-30T22:26:54.582Z,59.48
2022-10-30T22:29:21.109Z,59.52
2022-10-30T22:31:47.708Z,59.42
2022-10-30T22:34:14.244Z,59.24
2022-10-30T22:36:40.810Z,59.40
2022-10-30T22:39:12.467Z,60.20
2022-10-30T22:41:39.408Z,59.67
2022-10-30T22:44:08.622Z,59.67
2022-10-30T22:46:36.462Z,59.83
2022-10-30T22:49:03.623Z,59.74
2022-10-30T22:51:32.464Z,60.41
2022-10-30T22:54:01.359Z,60.08
2022-10-30T22:56:30.598Z,60.07
2022-10-30T22:59:01.462Z,60.67
2022-10-30T23:01:30.588Z,60.17
2022-10-30T23:03:59.283Z,60.09
2022-10-30T23:06:27.737Z,60.07
2022-10-30T23:08:55.851Z,60.07
2022-10-30T23:11:22.946Z,59.89
2022-10-30T23:13:49.869Z,59.79
2022-10-30T23:16:19.095Z,60.23
2022-10-30T23:18:46.457Z,60.34
2022-10-30T23:21:16.536Z,60.61
2022-10-30T23:23:44.071Z,60.49
2022-10-30T23:26:21.005Z,61.46
2022-10-30T23:28:49.015Z,60.61
2022-10-30T23:31:35.506Z,61.61
2022-10-30T23:34:05.113Z,61.00
2022-10-30T23:36:31.867Z,61.04
2022-10-30T23:39:00.637Z,61.57
2022-10-30T23:41:32.276Z,62.05
2022-10-30T23:44:01.145Z,61.47
2022-10-30T23:46:28.258Z,61.26
2022-10-30T23:48:55.499Z,61.61
2022-10-30T23:51:22.673Z,61.82
2022-10-30T23:53:49.514Z,61.59
2022-10-30T23:56:16.735Z,61.94
2022-10-30T23:58:44.300Z,62.06
